createdAt,value
2023-02-08T00:01:18.592Z,60.80
2023-02-08T00:03:47.336Z,63.97
2023-02-08T00:06:16.016Z,64.15
2023-02-08T00:08:44.746Z,62.47
2023-02-08T00:11:13.342Z,67.18
2023-02-08T00:13:43.055Z,65.78
2023-02-08T00:16:12.232Z,62.40
2023-02-08T00:18:41.801Z,61.00
2023-02-08T00:21:11.196Z,60.43
2023-02-08T00:23:39.331Z,60.20
2023-02-08T00:26:07.995Z,58.33
2023-02-08T00:28:36.278Z,53.08
2023-02-08T00:31:04.579Z,48.30
2023-02-08T00:33:32.690Z,47.85
2023-02-08T00:36:03.249Z,53.40
2023-02-08T00:38:31.651Z,62.30
2023-02-08T00:40:59.709Z,58.05
2023-02-08T00:43:27.853Z,63.20
2023-02-08T00:45:56.685Z,62.50
2023-02-08T00:48:24.725Z,56.72
2023-02-08T00:51:02.319Z,57.03
2023-02-08T00:53:30.527Z,62.03
2023-02-08T00:55:58.882Z,61.67
2023-02-08T00:58:26.960Z,50.38
2023-02-08T01:00:55.374Z,63.40
2023-02-08T01:03:24.226Z,46.53
2023-02-08T01:05:52.468Z,72.43
2023-02-08T01:08:22.249Z,63.93
2023-02-08T01:10:50.312Z,56.73
2023-02-08T01:13:18.386Z,57.70
2023-02-08T01:15:46.447Z,56.17
2023-02-08T01:18:14.512Z,67.77
2023-02-08T01:20:42.553Z,55.70
2023-02-08T01:23:10.591Z,63.40
2023-02-08T01:25:40.029Z,64.10
2023-02-08T01:28:08.142Z,54.00
2023-02-08T01:30:36.211Z,65.57
2023-02-08T01:33:04.229Z,55.60
2023-02-08T01:35:32.281Z,65.63
2023-02-08T01:38:00.324Z,54.17
2023-02-08T01:40:28.422Z,59.87
2023-02-08T01:42:57.873Z,61.00
2023-02-08T01:45:30.018Z,54.30
2023-02-08T01:48:07.742Z,59.03
2023-02-08T01:50:42.801Z,66.20
2023-02-08T01:53:11.278Z,63.03
2023-02-08T01:55:43.806Z,55.88
2023-02-08T01:58:14.352Z,67.57
2023-02-08T02:00:42.877Z,59.83
2023-02-08T02:03:11.356Z,70.80
2023-02-08T02:05:43.412Z,50.90
2023-02-08T02:08:13.072Z,73.23
2023-02-08T02:10:43.144Z,78.57
2023-02-08T02:13:15.366Z,77.07
2023-02-08T02:15:44.964Z,67.57
2023-02-08T02:18:19.218Z,74.13
2023-02-08T02:21:14.740Z,68.03
2023-02-08T02:24:22.593Z,70.80
2023-02-08T02:27:31.792Z,67.57
2023-02-08T02:30:35.210Z,64.27
2023-02-08T02:33:25.237Z,69.80
2023-02-08T02:36:01.379Z,71.77
2023-02-08T02:38:42.355Z,68.73
2023-02-08T02:41:40.878Z,68.03
2023-02-08T02:44:14.712Z,57.22
2023-02-08T02:46:48.058Z,68.40
2023-02-08T02:49:23.167Z,78.53
2023-02-08T02:51:58.861Z,76.00
2023-02-08T02:54:33.869Z,67.53
2023-02-08T02:57:06.418Z,80.60
2023-02-08T02:59:35.903Z,69.50
2023-02-08T03:02:05.006Z,69.60
2023-02-08T03:04:55.766Z,69.20
2023-02-08T03:07:43.428Z,65.90
2023-02-08T03:10:34.696Z,65.60
2023-02-08T03:13:08.676Z,68.53
2023-02-08T03:15:47.345Z,65.73
2023-02-08T03:18:25.005Z,62.40
2023-02-08T03:21:01.646Z,68.03
2023-02-08T03:23:32.025Z,73.70
2023-02-08T03:26:08.137Z,69.67
2023-02-08T03:28:42.162Z,63.90
2023-02-08T03:31:16.176Z,68.33
2023-02-08T03:33:51.250Z,65.82
2023-02-08T03:36:25.896Z,65.00
2023-02-08T03:38:55.695Z,61.10
2023-02-08T03:41:29.162Z,71.87
2023-02-08T03:44:01.387Z,64.23
2023-02-08T03:46:33.300Z,71.97
2023-02-08T03:49:05.640Z,76.63
2023-02-08T03:51:39.047Z,68.60
2023-02-08T03:54:09.994Z,63.00
2023-02-08T03:56:42.723Z,63.90
2023-02-08T03:59:16.088Z,69.55
2023-02-08T04:01:48.433Z,69.20
2023-02-08T04:04:18.699Z,75.28
2023-02-08T04:06:48.307Z,69.97
2023-02-08T04:09:16.368Z,63.40
2023-02-08T04:11:44.644Z,65.57
2023-02-08T04:14:12.726Z,72.03
2023-02-08T04:16:40.820Z,68.32
2023-02-08T04:19:08.877Z,61.45
2023-02-08T04:21:36.950Z,61.78
2023-02-08T04:24:06.759Z,60.75
2023-02-08T04:26:34.928Z,62.50
2023-02-08T04:29:03.301Z,64.45
2023-02-08T04:31:31.481Z,67.57
2023-02-08T04:33:59.909Z,64.80
2023-02-08T04:36:27.962Z,45.47
2023-02-08T04:38:56.042Z,68.60
2023-02-08T04:41:25.440Z,66.43
2023-02-08T04:46:21.352Z,63.03
2023-02-08T04:48:49.403Z,61.88
2023-02-08T04:51:17.484Z,62.97
2023-02-08T04:53:45.536Z,128.48
2023-02-08T04:56:14.517Z,92.13
2023-02-08T04:58:43.933Z,85.28
2023-02-08T05:01:12.043Z,80.63
2023-02-08T05:03:40.334Z,70.90
2023-02-08T05:06:08.829Z,65.45
2023-02-08T05:08:37.012Z,69.43
2023-02-08T05:11:05.289Z,64.80
2023-02-08T05:13:33.459Z,68.18
2023-02-08T05:16:03.059Z,73.97
2023-02-08T05:18:31.159Z,67.45
2023-02-08T05:21:01.662Z,70.50
2023-02-08T05:23:29.728Z,73.15
2023-02-08T05:25:57.797Z,66.82
2023-02-08T05:28:26.039Z,69.03
2023-02-08T05:30:54.133Z,75.28
2023-02-08T05:33:23.601Z,71.57
2023-02-08T05:35:51.675Z,65.57
2023-02-08T05:38:19.738Z,81.45
2023-02-08T05:40:48.020Z,69.13
2023-02-08T05:43:16.071Z,67.13
2023-02-08T05:45:44.098Z,77.88
2023-02-08T05:48:12.136Z,72.78
2023-02-08T05:50:41.721Z,71.15
2023-02-08T05:53:09.943Z,66.90
2023-02-08T05:55:37.997Z,77.55
2023-02-08T05:58:06.064Z,73.78
2023-02-08T06:00:34.127Z,67.78
2023-02-08T06:03:02.220Z,69.57
2023-02-08T06:05:30.452Z,68.85
2023-02-08T06:07:59.880Z,75.93
2023-02-08T06:12:55.944Z,67.65
2023-02-08T06:15:24.116Z,74.40
2023-02-08T06:17:52.610Z,69.90
2023-02-08T06:20:20.910Z,63.63
2023-02-08T06:22:48.978Z,75.32
2023-02-08T06:25:18.801Z,72.10
2023-02-08T06:27:46.883Z,71.35
2023-02-08T06:30:15.108Z,77.65
2023-02-08T06:32:43.163Z,83.55
2023-02-08T06:35:11.703Z,76.75
2023-02-08T06:37:39.785Z,68.82
2023-02-08T06:40:08.987Z,70.72
2023-02-08T06:42:38.568Z,76.30
2023-02-08T06:45:09.957Z,68.07
2023-02-08T06:47:38.676Z,71.05
2023-02-08T06:50:07.479Z,80.88
2023-02-08T06:52:35.845Z,54.13
2023-02-08T06:55:04.008Z,61.63
2023-02-08T06:57:32.081Z,71.70
2023-02-08T07:00:01.571Z,65.57
2023-02-08T07:02:29.738Z,69.22
2023-02-08T07:04:57.834Z,71.00
2023-02-08T07:07:26.131Z,71.30
2023-02-08T07:09:54.157Z,71.07
2023-02-08T07:12:22.249Z,78.30
2023-02-08T07:14:50.644Z,72.20
2023-02-08T07:17:20.054Z,58.83
2023-02-08T07:22:15.935Z,71.55
2023-02-08T07:24:44.424Z,69.82
2023-02-08T07:27:14.136Z,72.65
2023-02-08T07:29:42.318Z,74.63
2023-02-08T07:32:12.222Z,79.22
2023-02-08T07:34:41.730Z,76.00
2023-02-08T07:37:09.766Z,75.00
2023-02-08T07:39:37.857Z,70.53
2023-02-08T07:42:06.893Z,78.50
2023-02-08T07:44:34.970Z,72.63
2023-02-08T07:47:03.066Z,71.10
2023-02-08T07:49:31.269Z,76.72
2023-02-08T07:52:01.407Z,83.25
2023-02-08T07:54:29.950Z,74.90
2023-02-08T07:56:58.224Z,71.13
2023-02-08T07:59:26.373Z,73.40
2023-02-08T08:01:54.557Z,84.57
2023-02-08T08:04:22.997Z,71.55
2023-02-08T08:06:51.548Z,76.87
2023-02-08T08:09:21.401Z,71.88
2023-02-08T08:11:49.525Z,80.65
2023-02-08T08:14:17.553Z,74.60
2023-02-08T08:16:45.634Z,73.95
2023-02-08T08:19:13.716Z,68.70
2023-02-08T08:21:41.744Z,75.05
2023-02-08T08:24:09.846Z,69.35
2023-02-08T08:26:39.297Z,70.30
2023-02-08T08:31:35.476Z,66.75
2023-02-08T08:34:03.661Z,66.63
2023-02-08T08:36:31.787Z,65.20
2023-02-08T08:38:59.843Z,66.28
2023-02-08T08:41:28.525Z,69.20
2023-02-08T08:43:58.004Z,51.42
2023-02-08T08:48:54.068Z,61.05
2023-02-08T08:51:22.201Z,63.10
2023-02-08T08:53:50.301Z,61.90
2023-02-08T08:56:18.336Z,74.85
2023-02-08T08:58:46.411Z,58.33
2023-02-08T09:01:15.965Z,64.72
2023-02-08T09:03:44.064Z,69.78
2023-02-08T09:06:12.121Z,59.30
2023-02-08T09:08:40.282Z,68.38
2023-02-08T09:11:09.747Z,63.25
2023-02-08T09:16:09.386Z,68.72
2023-02-08T09:18:38.836Z,63.10
2023-02-08T09:23:35.207Z,67.30
2023-02-08T09:26:04.380Z,63.63
2023-02-08T09:28:32.512Z,62.25
2023-02-08T09:31:01.715Z,59.40
2023-02-08T09:33:29.904Z,62.70
2023-02-08T09:35:59.320Z,62.47
2023-02-08T09:38:27.582Z,57.08
2023-02-08T09:41:05.785Z,55.83
2023-02-08T09:43:43.326Z,59.92
2023-02-08T09:46:17.660Z,64.88
2023-02-08T09:48:47.636Z,60.65
2023-02-08T09:51:26.563Z,59.88
2023-02-08T09:53:58.969Z,61.17
2023-02-08T09:56:31.865Z,57.25
2023-02-08T09:59:01.891Z,60.65
2023-02-08T10:01:33.184Z,57.22
2023-02-08T10:04:03.953Z,57.25
2023-02-08T10:06:33.448Z,62.83
2023-02-08T10:11:43.357Z,57.42
2023-02-08T10:14:43.314Z,60.45
2023-02-08T10:17:40.133Z,57.63
2023-02-08T10:20:19.758Z,56.83
2023-02-08T10:23:01.218Z,57.35
2023-02-08T10:25:46.693Z,62.50
2023-02-08T10:28:31.394Z,59.67
2023-02-08T10:31:08.794Z,50.92
2023-02-08T10:33:45.312Z,59.80
2023-02-08T10:36:15.927Z,52.92
2023-02-08T10:38:47.050Z,49.97
2023-02-08T10:41:19.611Z,52.42
2023-02-08T10:43:53.075Z,53.67
2023-02-08T10:46:26.917Z,48.83
2023-02-08T10:49:04.752Z,45.88
2023-02-08T10:51:32.860Z,49.67
2023-02-08T10:54:02.475Z,48.85
2023-02-08T10:59:13.474Z,50.28
2023-02-08T11:01:41.584Z,45.25
2023-02-08T11:04:11.615Z,48.72
2023-02-08T11:06:41.238Z,41.22
2023-02-08T11:14:24.291Z,42.50
2023-02-08T11:16:53.833Z,36.10
2023-02-08T11:24:31.110Z,39.53
2023-02-08T11:26:59.648Z,44.42
2023-02-08T11:29:29.490Z,41.20
2023-02-08T11:32:00.614Z,41.85
2023-02-08T11:34:30.544Z,38.72
2023-02-08T11:37:00.302Z,38.97
2023-02-08T11:39:35.133Z,41.58
2023-02-08T11:42:04.585Z,36.75
2023-02-08T11:44:35.177Z,38.55
2023-02-08T11:47:05.604Z,39.17
2023-02-08T11:49:39.704Z,39.90
2023-02-08T11:52:19.657Z,36.20
2023-02-08T11:54:49.247Z,30.52
2023-02-08T11:59:47.573Z,32.97
2023-02-08T12:02:30.230Z,30.27
2023-02-08T12:04:59.060Z,28.45
2023-02-08T12:07:43.389Z,31.05
2023-02-08T12:10:44.525Z,27.70
2023-02-08T12:13:30.011Z,21.77
2023-02-08T12:16:10.708Z,8.88
2023-02-08T12:19:02.112Z,10.98
2023-02-08T12:21:37.216Z,9.80
2023-02-08T12:24:17.228Z,9.50
2023-02-08T12:26:59.775Z,7.85
2023-02-08T12:29:48.349Z,6.35
2023-02-08T12:32:39.775Z,6.18
2023-02-08T12:35:50.968Z,7.05
2023-02-08T12:38:54.671Z,6.30
2023-02-08T12:41:29.045Z,8.35
2023-02-08T12:44:05.940Z,7.22
2023-02-08T12:46:51.981Z,7.43
2023-02-08T12:49:50.602Z,5.53
2023-02-08T12:52:30.661Z,5.50
2023-02-08T12:55:02.882Z,4.40
2023-02-08T12:57:32.569Z,5.72
2023-02-08T13:00:07.233Z,5.72
2023-02-08T13:02:44.598Z,7.75
2023-02-08T13:05:18.827Z,5.80
2023-02-08T13:07:50.382Z,4.93
2023-02-08T13:10:26.836Z,5.07
2023-02-08T13:12:58.148Z,7.15
2023-02-08T13:15:37.338Z,8.93
2023-02-08T13:18:12.981Z,8.13
2023-02-08T13:20:44.130Z,8.50
2023-02-08T13:23:19.526Z,6.38
2023-02-08T13:25:50.876Z,7.15
2023-02-08T13:28:21.767Z,6.93
2023-02-08T13:30:57.859Z,7.57
2023-02-08T13:33:33.725Z,7.10
2023-02-08T13:36:02.299Z,8.18
2023-02-08T13:38:34.768Z,7.67
2023-02-08T13:41:09.396Z,6.72
2023-02-08T13:43:42.166Z,10.15
2023-02-08T13:46:12.657Z,10.32
2023-02-08T13:48:49.874Z,10.40
2023-02-08T13:51:58.572Z,11.38
2023-02-08T13:54:27.135Z,10.30
2023-02-08T13:56:56.080Z,10.65
2023-02-08T13:59:35.992Z,11.55
2023-02-08T14:02:29.144Z,15.35
2023-02-08T14:05:36.778Z,9.73
2023-02-08T14:08:07.411Z,10.05
2023-02-08T14:10:41.953Z,10.80
2023-02-08T14:13:24.740Z,10.15
2023-02-08T14:16:25.965Z,9.82
2023-02-08T14:18:57.401Z,8.68
2023-02-08T14:21:33.047Z,10.43
2023-02-08T14:24:03.955Z,9.52
2023-02-08T14:26:32.429Z,11.25
2023-02-08T14:29:03.288Z,12.13
2023-02-08T14:31:42.910Z,12.13
2023-02-08T14:34:34.973Z,14.82
2023-02-08T14:37:07.124Z,12.95
2023-02-08T14:39:37.288Z,12.00
2023-02-08T14:42:08.715Z,15.35
2023-02-08T14:45:05.571Z,14.50
2023-02-08T14:47:55.078Z,14.45
2023-02-08T14:53:02.178Z,15.00
2023-02-08T14:55:33.899Z,19.50
2023-02-08T14:58:02.756Z,19.80
2023-02-08T15:00:35.114Z,22.92
2023-02-08T15:03:05.220Z,26.08
2023-02-08T15:05:44.440Z,28.45
2023-02-08T15:10:45.103Z,26.17
2023-02-08T15:13:20.982Z,28.00
2023-02-08T15:15:53.924Z,29.50
2023-02-08T15:18:24.756Z,31.75
2023-02-08T15:21:04.342Z,30.08
2023-02-08T15:23:33.001Z,32.38
2023-02-08T15:26:03.640Z,30.95
2023-02-08T15:28:34.725Z,32.55
2023-02-08T15:31:06.097Z,30.25
2023-02-08T15:33:34.892Z,27.67
2023-02-08T15:36:08.363Z,29.80
2023-02-08T15:38:39.519Z,31.50
2023-02-08T15:41:09.496Z,31.63
2023-02-08T15:43:38.850Z,29.88
2023-02-08T15:46:08.642Z,30.52
2023-02-08T15:48:38.896Z,29.73
2023-02-08T15:51:11.380Z,28.85
2023-02-08T15:53:41.892Z,28.88
2023-02-08T15:56:12.407Z,29.83
2023-02-08T15:58:44.762Z,31.92
2023-02-08T16:01:19.442Z,28.88
2023-02-08T16:03:50.310Z,31.65
2023-02-08T16:06:24.766Z,31.88
2023-02-08T16:08:54.570Z,24.33
2023-02-08T16:11:24.950Z,36.85
2023-02-08T16:13:55.704Z,28.55
2023-02-08T16:16:27.331Z,30.40
2023-02-08T16:19:00.149Z,27.45
2023-02-08T16:21:33.969Z,32.33
2023-02-08T16:24:08.922Z,28.27
2023-02-08T16:26:42.792Z,31.88
2023-02-08T16:29:19.721Z,30.02
2023-02-08T16:31:49.534Z,29.30
2023-02-08T16:34:19.884Z,36.42
2023-02-08T16:36:51.725Z,31.95
2023-02-08T16:39:53.893Z,31.67
2023-02-08T16:42:33.821Z,33.83
2023-02-08T16:45:24.678Z,34.10
2023-02-08T16:47:54.676Z,32.95
2023-02-08T16:50:24.314Z,37.33
2023-02-08T16:52:56.360Z,33.28
2023-02-08T16:55:27.162Z,38.72
2023-02-08T16:57:57.397Z,40.40
2023-02-08T17:00:27.591Z,33.20
2023-02-08T17:02:56.712Z,40.55
2023-02-08T17:05:27.600Z,34.85
2023-02-08T17:07:57.926Z,40.20
2023-02-08T17:10:29.045Z,49.33
2023-02-08T17:13:17.109Z,38.70
2023-02-08T17:15:46.538Z,41.25
2023-02-08T17:18:15.345Z,40.70
2023-02-08T17:20:44.160Z,36.20
2023-02-08T17:23:15.390Z,35.53
2023-02-08T17:25:43.924Z,35.28
2023-02-08T17:28:17.454Z,31.95
2023-02-08T17:30:46.830Z,39.45
2023-02-08T17:35:48.232Z,42.20
2023-02-08T17:38:18.003Z,39.00
2023-02-08T17:40:46.786Z,34.10
2023-02-08T17:43:15.216Z,38.95
2023-02-08T17:45:45.119Z,40.77
2023-02-08T17:48:14.343Z,41.55
2023-02-08T17:50:45.088Z,40.97
2023-02-08T17:53:13.759Z,41.70
2023-02-08T17:55:44.427Z,37.45
2023-02-08T17:58:13.106Z,37.17
2023-02-08T18:00:41.675Z,46.63
2023-02-08T18:03:09.787Z,37.87
2023-02-08T18:05:37.992Z,40.90
2023-02-08T18:08:06.533Z,39.70
2023-02-08T18:10:34.623Z,34.45
2023-02-08T18:13:04.159Z,37.92
2023-02-08T18:15:32.281Z,39.25
2023-02-08T18:18:00.384Z,36.10
2023-02-08T18:20:28.655Z,39.42
2023-02-08T18:22:56.723Z,37.75
2023-02-08T18:25:24.872Z,36.33
2023-02-08T18:27:53.037Z,37.20
2023-02-08T18:30:22.885Z,34.33
2023-02-08T18:32:50.986Z,39.83
2023-02-08T18:35:19.159Z,38.72
2023-02-08T18:37:49.513Z,31.70
2023-02-08T18:40:18.450Z,38.60
2023-02-08T18:42:46.530Z,26.33
2023-02-08T18:45:14.708Z,35.20
2023-02-08T18:47:44.191Z,39.88
2023-02-08T18:52:40.278Z,34.55
2023-02-08T18:55:08.791Z,38.55
2023-02-08T18:57:38.888Z,34.72
2023-02-08T19:00:08.074Z,34.75
2023-02-08T19:02:38.006Z,35.10
2023-02-08T19:05:09.044Z,35.65
2023-02-08T19:07:38.748Z,35.95
2023-02-08T19:10:07.998Z,34.30
2023-02-08T19:12:37.612Z,33.42
2023-02-08T19:15:06.342Z,36.05
2023-02-08T19:17:34.420Z,29.70
2023-02-08T19:20:02.463Z,39.15
2023-02-08T19:22:31.873Z,35.72
2023-02-08T19:27:27.880Z,32.42
2023-02-08T19:29:56.450Z,32.55
2023-02-08T19:32:24.729Z,34.65
2023-02-08T19:34:52.769Z,35.03
2023-02-08T19:37:20.891Z,37.90
2023-02-08T19:39:50.356Z,32.88
2023-02-08T19:42:18.497Z,31.92
2023-02-08T19:44:46.569Z,35.67
2023-02-08T19:47:14.607Z,31.27
2023-02-08T19:49:42.710Z,37.10
2023-02-08T19:52:10.766Z,36.63
2023-02-08T19:54:38.854Z,36.80
2023-02-08T19:57:11.699Z,35.53
2023-02-08T19:59:39.864Z,40.03
2023-02-08T20:02:08.513Z,35.30
2023-02-08T20:04:36.611Z,33.70
2023-02-08T20:07:05.700Z,32.40
2023-02-08T20:09:34.786Z,38.95
2023-02-08T20:12:03.101Z,34.60
2023-02-08T20:14:33.919Z,32.72
2023-02-08T20:17:03.006Z,36.65
2023-02-08T20:19:31.286Z,32.85
2023-02-08T20:21:59.401Z,29.67
2023-02-08T20:24:27.559Z,30.40
2023-02-08T20:26:55.710Z,31.63
2023-02-08T20:29:23.798Z,28.02
2023-02-08T20:31:55.710Z,33.30
2023-02-08T20:34:24.229Z,32.28
2023-02-08T20:37:06.207Z,31.52
2023-02-08T20:39:35.374Z,31.08
2023-02-08T20:42:03.472Z,30.63
2023-02-08T20:44:32.440Z,32.92
2023-02-08T20:47:02.178Z,33.60
2023-02-08T20:49:32.129Z,31.05
2023-02-08T20:52:00.455Z,29.45
2023-02-08T20:54:28.603Z,25.63
2023-02-08T20:56:56.719Z,28.52
2023-02-08T20:59:24.937Z,32.33
2023-02-08T21:01:53.304Z,29.50
2023-02-08T21:04:23.819Z,33.77
2023-02-08T21:06:52.545Z,30.35
2023-02-08T21:09:21.083Z,25.85
2023-02-08T21:11:50.126Z,33.13
2023-02-08T21:14:20.877Z,28.52
2023-02-08T21:16:51.089Z,29.23
2023-02-08T21:19:20.444Z,28.90
2023-02-08T21:24:20.121Z,35.85
2023-02-08T21:26:48.263Z,30.10
2023-02-08T21:29:16.482Z,30.40
2023-02-08T21:31:44.787Z,38.13
2023-02-08T21:34:13.845Z,36.70
2023-02-08T21:36:42.000Z,37.42
2023-02-08T21:39:11.416Z,35.47
2023-02-08T21:44:08.299Z,37.10
2023-02-08T21:46:37.302Z,37.05
2023-02-08T21:49:22.881Z,36.15
2023-02-08T21:52:08.528Z,34.42
2023-02-08T21:54:44.458Z,38.95
2023-02-08T21:57:18.595Z,38.40
2023-02-08T21:59:48.111Z,39.80
2023-02-08T22:02:21.562Z,35.35
2023-02-08T22:05:07.749Z,39.70
2023-02-08T22:07:43.236Z,41.83
2023-02-08T22:10:15.443Z,43.33
2023-02-08T22:12:43.608Z,39.33
2023-02-08T22:15:13.770Z,37.50
2023-02-08T22:17:41.914Z,41.67
2023-02-08T22:20:11.641Z,37.80
2023-02-08T22:22:39.902Z,43.45
2023-02-08T22:25:08.303Z,38.90
2023-02-08T22:27:39.098Z,29.17
2023-02-08T22:30:08.673Z,39.95
2023-02-08T22:32:40.008Z,39.85
2023-02-08T22:35:08.533Z,40.42
2023-02-08T22:37:37.242Z,29.95
2023-02-08T22:40:06.606Z,37.38
2023-02-08T22:45:04.085Z,36.67
2023-02-08T22:47:32.241Z,35.20
2023-02-08T22:50:01.060Z,41.67
2023-02-08T22:52:30.362Z,39.80
2023-02-08T22:55:02.332Z,42.08
2023-02-08T22:57:30.562Z,39.05
2023-02-08T22:59:58.688Z,36.55
2023-02-08T23:02:28.308Z,40.08
2023-02-08T23:04:56.578Z,40.13
2023-02-08T23:07:24.701Z,42.70
2023-02-08T23:09:52.796Z,38.65
2023-02-08T23:12:20.857Z,43.35
2023-02-08T23:14:49.697Z,41.53
2023-02-08T23:17:17.853Z,46.08
2023-02-08T23:19:47.323Z,42.33
2023-02-08T23:24:43.213Z,38.97
2023-02-08T23:27:11.482Z,43.60
2023-02-08T23:29:39.551Z,40.03
2023-02-08T23:32:07.708Z,43.72
2023-02-08T23:34:35.979Z,43.30
2023-02-08T23:37:05.373Z,47.13
2023-02-08T23:42:02.185Z,36.85
2023-02-08T23:44:30.261Z,41.50
2023-02-08T23:46:58.554Z,48.95
2023-02-08T23:49:26.681Z,46.13
2023-02-08T23:51:54.764Z,44.47
2023-02-08T23:54:24.215Z,47.17
2023-02-08T23:59:21.119Z,36.05
